sensor_id;sensor_type;location;lat;lon;timestamp;temperature;humidity
46378;DHT22;32083;47.360;9.650;2022-10-26T04:00:21;13.50;99.90
46378;DHT22;32083;47.360;9.650;2022-10-26T04:02:55;13.60;99.90
46378;DHT22;32083;47.360;9.650;2022-10-26T04:05:23;13.60;99.90
46378;DHT22;32083;47.360;9.650;2022-10-26T04:07:57;13.60;99.90
46378;DHT22;32083;47.360;9.650;2022-10-26T04:10:24;13.70;99.90
46378;DHT22;32083;47.360;9.650;2022-10-26T04:12:51;13.70;99.90
46378;DHT22;32083;47.360;9.650;2022-10-26T04:15:18;13.70;99.90
46378;DHT22;32083;47.360;9.650;2022-10-26T04:17:45;13.70;99.90
46378;DHT22;32083;47.360;9.650;2022-10-26T04:20:11;13.70;99.90
46378;DHT22;32083;47.360;9.650;2022-10-26T04:22:37;13.70;99.90
46378;DHT22;32083;47.360;9.650;2022-10-26T04:25:04;13.70;99.90
46378;DHT22;32083;47.360;9.650;2022-10-26T04:27:31;13.70;99.90
46378;DHT22;32083;47.360;9.650;2022-10-26T04:29:57;13.70;99.90
46378;DHT22;32083;47.360;9.650;2022-10-26T04:32:23;13.70;99.90
46378;DHT22;32083;47.360;9.650;2022-10-26T04:34:49;13.70;99.90
46378;DHT22;32083;47.360;9.650;2022-10-26T04:37:15;13.70;99.90
46378;DHT22;32083;47.360;9.650;2022-10-26T04:39:41;13.70;99.90
46378;DHT22;32083;47.360;9.650;2022-10-26T04:42:07;13.70;99.90
46378;DHT22;32083;47.360;9.650;2022-10-26T04:44:33;13.70;99.90
46378;DHT22;32083;47.360;9.650;2022-10-26T04:46:58;13.70;99.90
46378;DHT22;32083;47.360;9.650;2022-10-26T04:49:24;13.70;99.90
46378;DHT22;32083;47.360;9.650;2022-10-26T04:51:50;13.70;99.90
46378;DHT22;32083;47.360;9.650;2022-10-26T04:54:16;13.60;99.90
46378;DHT22;32083;47.360;9.650;2022-10-26T04:56:42;13.60;99.90
46378;DHT22;32083;47.360;9.650;2022-10-26T04:59:08;13.60;99.90
46378;DHT22;32083;47.360;9.650;2022-10-26T05:01:34;13.60;99.90
46378;DHT22;32083;47.360;9.650;2022-10-26T05:04:00;13.60;99.90
46378;DHT22;32083;47.360;9.650;2022-10-26T05:06:27;13.50;99.90
46378;DHT22;32083;47.360;9.650;2022-10-26T05:08:54;13.50;99.90
46378;DHT22;32083;47.360;9.650;2022-10-26T05:11:20;13.50;99.90
46378;DHT22;32083;47.360;9.650;2022-10-26T05:13:47;13.40;99.90
46378;DHT22;32083;47.360;9.650;2022-10-26T05:16:14;13.40;99.90
46378;DHT22;32083;47.360;9.650;2022-10-26T05:18:40;13.40;99.90
46378;DHT22;32083;47.360;9.650;2022-10-26T05:21:06;13.30;99.90
46378;DHT22;32083;47.360;9.650;2022-10-26T05:23:32;13.30;99.90
46378;DHT22;32083;47.360;9.650;2022-10-26T05:25:58;13.40;99.90
46378;DHT22;32083;47.360;9.650;2022-10-26T05:28:24;13.30;99.90
46378;DHT22;32083;47.360;9.650;2022-10-26T05:30:50;13.40;99.90
46378;DHT22;32083;47.360;9.650;2022-10-26T05:33:16;13.40;99.90
46378;DHT22;32083;47.360;9.650;2022-10-26T05:35:42;13.50;99.90
46378;DHT22;32083;47.360;9.650;2022-10-26T05:38:17;13.50;99.90
46378;DHT22;32083;47.360;9.650;2022-10-26T05:40:51;13.60;99.90
46378;DHT22;32083;47.360;9.650;2022-10-26T05:43:18;13.70;99.90
46378;DHT22;32083;47.360;9.650;2022-10-26T05:45:44;13.70;99.90
46378;DHT22;32083;47.360;9.650;2022-10-26T05:48:10;13.70;99.90
46378;DHT22;32083;47.360;9.650;2022-10-26T05:50:37;13.70;99.90
46378;DHT22;32083;47.360;9.650;2022-10-26T05:53:03;13.80;99.90
46378;DHT22;32083;47.360;9.650;2022-10-26T05:55:29;13.80;99.90
46378;DHT22;32083;47.360;9.650;2022-10-26T05:57:55;13.80;99.90
46378;DHT22;32083;47.360;9.650;2022-10-26T06:00:24;13.80;99.90
46378;DHT22;32083;47.360;9.650;2022-10-26T06:06:01;13.80;99.90
46378;DHT22;32083;47.360;9.650;2022-10-26T06:08:28;13.90;99.90
46378;DHT22;32083;47.360;9.650;2022-10-26T06:10:55;14.00;99.90
46378;DHT22;32083;47.360;9.650;2022-10-26T06:13:24;14.00;99.90
46378;DHT22;32083;47.360;9.650;2022-10-26T06:18:50;14.00;99.90
46378;DHT22;32083;47.360;9.650;2022-10-26T06:23:57;14.00;99.90
46378;DHT22;32083;47.360;9.650;2022-10-26T06:32:24;14.00;99.90
46378;DHT22;32083;47.360;9.650;2022-10-26T06:34:54;14.00;99.90
46378;DHT22;32083;47.360;9.650;2022-10-26T06:37:27;14.00;99.90
46378;DHT22;32083;47.360;9.650;2022-10-26T06:39:54;14.00;99.90
46378;DHT22;32083;47.360;9.650;2022-10-26T06:42:22;14.00;99.90
46378;DHT22;32083;47.360;9.650;2022-10-26T06:44:48;14.00;99.90
46378;DHT22;32083;47.360;9.650;2022-10-26T06:50:01;14.00;99.90
46378;DHT22;32083;47.360;9.650;2022-10-26T06:52:36;14.00;99.90
46378;DHT22;32083;47.360;9.650;2022-10-26T06:55:03;14.10;99.90
46378;DHT22;32083;47.360;9.650;2022-10-26T06:57:34;14.10;99.90
46378;DHT22;32083;47.360;9.650;2022-10-26T07:00:09;14.10;99.90
46378;DHT22;32083;47.360;9.650;2022-10-26T07:02:39;14.20;99.90
46378;DHT22;32083;47.360;9.650;2022-10-26T07:05:05;14.20;99.90
46378;DHT22;32083;47.360;9.650;2022-10-26T07:07:37;14.20;99.90
46378;DHT22;32083;47.360;9.650;2022-10-26T07:10:04;14.30;99.90
46378;DHT22;32083;47.360;9.650;2022-10-26T07:12:31;14.30;99.90
46378;DHT22;32083;47.360;9.650;2022-10-26T07:14:57;14.40;99.90
46378;DHT22;32083;47.360;9.650;2022-10-26T07:17:25;14.40;99.90
46378;DHT22;32083;47.360;9.650;2022-10-26T07:19:53;14.40;99.90
46378;DHT22;32083;47.360;9.650;2022-10-26T07:22:20;14.40;99.90
46378;DHT22;32083;47.360;9.650;2022-10-26T07:24:46;14.40;99.90
46378;DHT22;32083;47.360;9.650;2022-10-26T07:27:17;14.50;99.90
46378;DHT22;32083;47.360;9.650;2022-10-26T07:29:46;14.50;99.90
46378;DHT22;32083;47.360;9.650;2022-10-26T07:32:12;14.50;99.90
46378;DHT22;32083;47.360;9.650;2022-10-26T07:34:38;14.50;99.90
46378;DHT22;32083;47.360;9.650;2022-10-26T07:37:04;14.60;99.90
46378;DHT22;32083;47.360;9.650;2022-10-26T07:39:30;14.60;99.90
46378;DHT22;32083;47.360;9.650;2022-10-26T07:41:57;14.60;99.90
46378;DHT22;32083;47.360;9.650;2022-10-26T07:44:23;14.70;99.90
46378;DHT22;32083;47.360;9.650;2022-10-26T07:46:50;14.70;99.90
46378;DHT22;32083;47.360;9.650;2022-10-26T07:49:16;14.70;99.90
46378;DHT22;32083;47.360;9.650;2022-10-26T07:51:43;14.70;99.90
46378;DHT22;32083;47.360;9.650;2022-10-26T07:54:09;14.70;99.90
46378;DHT22;32083;47.360;9.650;2022-10-26T07:56:35;14.80;99.90
46378;DHT22;32083;47.360;9.650;2022-10-26T07:59:01;14.80;99.90
46378;DHT22;32083;47.360;9.650;2022-10-26T08:01:27;14.80;99.90
46378;DHT22;32083;47.360;9.650;2022-10-26T08:03:53;14.80;99.90
46378;DHT22;32083;47.360;9.650;2022-10-26T08:06:22;14.90;99.90
46378;DHT22;32083;47.360;9.650;2022-10-26T08:08:48;14.90;99.90
46378;DHT22;32083;47.360;9.650;2022-10-26T08:11:15;15.00;99.90
46378;DHT22;32083;47.360;9.650;2022-10-26T08:13:41;15.00;99.90
46378;DHT22;32083;47.360;9.650;2022-10-26T08:16:08;15.10;99.90
46378;DHT22;32083;47.360;9.650;2022-10-26T08:18:34;15.10;99.90
46378;DHT22;32083;47.360;9.650;2022-10-26T08:21:05;15.10;99.90
46378;DHT22;32083;47.360;9.650;2022-10-26T08:23:32;15.20;99.90
46378;DHT22;32083;47.360;9.650;2022-10-26T08:26:02;15.20;99.90
46378;DHT22;32083;47.360;9.650;2022-10-26T08:28:28;15.20;99.90
46378;DHT22;32083;47.360;9.650;2022-10-26T08:30:55;15.20;99.90
46378;DHT22;32083;47.360;9.650;2022-10-26T08:33:22;15.20;99.90
46378;DHT22;32083;47.360;9.650;2022-10-26T08:35:54;15.30;99.90
46378;DHT22;32083;47.360;9.650;2022-10-26T08:38:20;15.30;99.90
46378;DHT22;32083;47.360;9.650;2022-10-26T08:40:46;15.40;99.90
46378;DHT22;32083;47.360;9.650;2022-10-26T08:46:03;15.60;99.90
46378;DHT22;32083;47.360;9.650;2022-10-26T08:48:40;15.70;99.90
46378;DHT22;32083;47.360;9.650;2022-10-26T08:51:27;15.80;99.90
46378;DHT22;32083;47.360;9.650;2022-10-26T08:56:44;15.80;99.90
46378;DHT22;32083;47.360;9.650;2022-10-26T08:59:35;15.70;99.90
46378;DHT22;32083;47.360;9.650;2022-10-26T09:02:02;15.80;99.90
46378;DHT22;32083;47.360;9.650;2022-10-26T09:04:30;15.70;99.90
46378;DHT22;32083;47.360;9.650;2022-10-26T09:15:59;15.90;99.90
46378;DHT22;32083;47.360;9.650;2022-10-26T09:21:19;15.90;99.90
46378;DHT22;32083;47.360;9.650;2022-10-26T09:23:59;15.80;99.90
46378;DHT22;32083;47.360;9.650;2022-10-26T09:26:53;15.80;99.90
46378;DHT22;32083;47.360;9.650;2022-10-26T09:29:24;15.90;99.90
46378;DHT22;32083;47.360;9.650;2022-10-26T09:31:53;16.00;99.90
46378;DHT22;32083;47.360;9.650;2022-10-26T09:34:25;16.00;99.90
46378;DHT22;32083;47.360;9.650;2022-10-26T09:36:53;16.10;99.90
46378;DHT22;32083;47.360;9.650;2022-10-26T09:39:25;16.10;99.90
46378;DHT22;32083;47.360;9.650;2022-10-26T09:41:58;16.10;99.90
46378;DHT22;32083;47.360;9.650;2022-10-26T09:44:43;16.10;99.90
46378;DHT22;32083;47.360;9.650;2022-10-26T09:47:30;16.00;99.90
46378;DHT22;32083;47.360;9.650;2022-10-26T09:52:42;16.20;99.90
46378;DHT22;32083;47.360;9.650;2022-10-26T09:55:11;16.30;99.90
46378;DHT22;32083;47.360;9.650;2022-10-26T09:57:45;16.20;99.90
46378;DHT22;32083;47.360;9.650;2022-10-26T10:00:17;16.30;99.90
46378;DHT22;32083;47.360;9.650;2022-10-26T10:02:47;16.30;99.90
46378;DHT22;32083;47.360;9.650;2022-10-26T10:05:21;16.30;99.90
46378;DHT22;32083;47.360;9.650;2022-10-26T10:07:47;16.30;99.90
46378;DHT22;32083;47.360;9.650;2022-10-26T10:10:21;16.40;99.90
46378;DHT22;32083;47.360;9.650;2022-10-26T10:12:49;16.40;99.90
46378;DHT22;32083;47.360;9.650;2022-10-26T10:15:22;16.50;99.90
46378;DHT22;32083;47.360;9.650;2022-10-26T10:17:51;16.60;99.90
46378;DHT22;32083;47.360;9.650;2022-10-26T10:20:30;16.70;99.90
46378;DHT22;32083;47.360;9.650;2022-10-26T10:23:01;16.70;99.90
46378;DHT22;32083;47.360;9.650;2022-10-26T10:25:36;16.80;99.90
46378;DHT22;32083;47.360;9.650;2022-10-26T10:28:22;16.80;99.90
46378;DHT22;32083;47.360;9.650;2022-10-26T10:30:53;16.80;99.90
46378;DHT22;32083;47.360;9.650;2022-10-26T10:33:20;16.80;99.90
46378;DHT22;32083;47.360;9.650;2022-10-26T10:35:49;16.80;99.90
46378;DHT22;32083;47.360;9.650;2022-10-26T10:38:18;16.90;99.90
46378;DHT22;32083;47.360;9.650;2022-10-26T10:40:55;17.00;99.90
46378;DHT22;32083;47.360;9.650;2022-10-26T10:43:22;17.10;99.90
46378;DHT22;32083;47.360;9.650;2022-10-26T10:45:52;17.10;99.90
46378;DHT22;32083;47.360;9.650;2022-10-26T10:48:22;17.00;99.90
46378;DHT22;32083;47.360;9.650;2022-10-26T10:51:05;17.10;99.90
46378;DHT22;32083;47.360;9.650;2022-10-26T10:53:44;17.10;99.90
46378;DHT22;32083;47.360;9.650;2022-10-26T10:56:42;17.10;99.90
46378;DHT22;32083;47.360;9.650;2022-10-26T10:59:41;17.10;99.90
46378;DHT22;32083;47.360;9.650;2022-10-26T11:02:32;17.10;99.90
46378;DHT22;32083;47.360;9.650;2022-10-26T11:08:02;17.10;99.90
46378;DHT22;32083;47.360;9.650;2022-10-26T11:10:35;17.10;99.90
46378;DHT22;32083;47.360;9.650;2022-10-26T11:13:07;17.10;99.90
46378;DHT22;32083;47.360;9.650;2022-10-26T11:15:36;17.00;99.90
46378;DHT22;32083;47.360;9.650;2022-10-26T11:20:38;17.00;99.60
46378;DHT22;32083;47.360;9.650;2022-10-26T11:26:04;16.90;99.70
46378;DHT22;32083;47.360;9.650;2022-10-26T11:31:46;16.80;99.60
46378;DHT22;32083;47.360;9.650;2022-10-26T11:34:18;16.80;99.90
46378;DHT22;32083;47.360;9.650;2022-10-26T11:36:48;16.80;99.90
46378;DHT22;32083;47.360;9.650;2022-10-26T11:39:36;16.80;99.90
46378;DHT22;32083;47.360;9.650;2022-10-26T11:44:49;17.10;99.90
46378;DHT22;32083;47.360;9.650;2022-10-26T11:47:39;17.20;99.90
46378;DHT22;32083;47.360;9.650;2022-10-26T11:50:21;17.30;99.90
46378;DHT22;32083;47.360;9.650;2022-10-26T11:52:51;17.50;99.90
46378;DHT22;32083;47.360;9.650;2022-10-26T11:55:18;17.60;99.90
46378;DHT22;32083;47.360;9.650;2022-10-26T11:57:45;17.60;99.40
46378;DHT22;32083;47.360;9.650;2022-10-26T12:02:43;17.70;99.80
46378;DHT22;32083;47.360;9.650;2022-10-26T12:06:04;17.70;99.40
46378;DHT22;32083;47.360;9.650;2022-10-26T12:08:21;17.60;99.00
46378;DHT22;32083;47.360;9.650;2022-10-26T12:10:57;17.60;99.70
46378;DHT22;32083;47.360;9.650;2022-10-26T12:18:32;17.80;99.40
46378;DHT22;32083;47.360;9.650;2022-10-26T12:21:08;17.80;99.40
46378;DHT22;32083;47.360;9.650;2022-10-26T12:24:01;17.90;99.90
46378;DHT22;32083;47.360;9.650;2022-10-26T12:26:38;17.90;99.60
46378;DHT22;32083;47.360;9.650;2022-10-26T12:47:05;18.10;98.20
46378;DHT22;32083;47.360;9.650;2022-10-26T12:50:33;18.10;98.30
46378;DHT22;32083;47.360;9.650;2022-10-26T13:03:39;18.30;99.80
46378;DHT22;32083;47.360;9.650;2022-10-26T13:09:21;18.70;99.10
46378;DHT22;32083;47.360;9.650;2022-10-26T13:11:52;18.80;98.90
46378;DHT22;32083;47.360;9.650;2022-10-26T13:14:33;18.80;99.40
46378;DHT22;32083;47.360;9.650;2022-10-26T13:17:01;18.90;98.90
46378;DHT22;32083;47.360;9.650;2022-10-26T13:22:05;18.80;98.50
46378;DHT22;32083;47.360;9.650;2022-10-26T13:24:33;18.80;98.80
46378;DHT22;32083;47.360;9.650;2022-10-26T13:32:41;19.00;98.10
46378;DHT22;32083;47.360;9.650;2022-10-26T13:35:14;19.10;98.10
46378;DHT22;32083;47.360;9.650;2022-10-26T13:37:44;19.20;98.80
46378;DHT22;32083;47.360;9.650;2022-10-26T13:40:16;19.30;98.80
46378;DHT22;32083;47.360;9.650;2022-10-26T13:43:09;19.40;98.70
46378;DHT22;32083;47.360;9.650;2022-10-26T13:48:19;19.30;97.20
46378;DHT22;32083;47.360;9.650;2022-10-26T13:55:59;19.20;97.80
46378;DHT22;32083;47.360;9.650;2022-10-26T13:58:41;19.20;97.60
46378;DHT22;32083;47.360;9.650;2022-10-26T14:03:39;19.20;97.40
46378;DHT22;32083;47.360;9.650;2022-10-26T14:06:35;19.20;97.60
46378;DHT22;32083;47.360;9.650;2022-10-26T14:09:05;19.30;97.40
46378;DHT22;32083;47.360;9.650;2022-10-26T14:11:48;19.30;97.00
46378;DHT22;32083;47.360;9.650;2022-10-26T14:14:21;19.30;97.00
46378;DHT22;32083;47.360;9.650;2022-10-26T14:16:49;19.30;97.50
46378;DHT22;32083;47.360;9.650;2022-10-26T14:19:29;19.30;97.00
46378;DHT22;32083;47.360;9.650;2022-10-26T14:21:56;19.30;97.40
46378;DHT22;32083;47.360;9.650;2022-10-26T14:24:34;19.40;96.80
46378;DHT22;32083;47.360;9.650;2022-10-26T14:27:02;19.40;96.80
46378;DHT22;32083;47.360;9.650;2022-10-26T14:29:31;19.40;97.00
46378;DHT22;32083;47.360;9.650;2022-10-26T14:31:57;19.40;97.40
46378;DHT22;32083;47.360;9.650;2022-10-26T14:34:23;19.40;96.70
46378;DHT22;32083;47.360;9.650;2022-10-26T14:37:01;19.40;96.70
46378;DHT22;32083;47.360;9.650;2022-10-26T14:39:34;19.30;97.20
46378;DHT22;32083;47.360;9.650;2022-10-26T14:42:06;19.30;96.90
46378;DHT22;32083;47.360;9.650;2022-10-26T14:44:35;19.30;96.90
46378;DHT22;32083;47.360;9.650;2022-10-26T14:47:02;19.30;97.00
46378;DHT22;32083;47.360;9.650;2022-10-26T14:49:28;19.30;96.90
46378;DHT22;32083;47.360;9.650;2022-10-26T14:52:00;19.20;97.10
46378;DHT22;32083;47.360;9.650;2022-10-26T14:54:28;19.20;97.20
46378;DHT22;32083;47.360;9.650;2022-10-26T14:56:55;19.30;97.20
46378;DHT22;32083;47.360;9.650;2022-10-26T14:59:26;19.20;97.20
46378;DHT22;32083;47.360;9.650;2022-10-26T15:01:53;19.20;97.10
46378;DHT22;32083;47.360;9.650;2022-10-26T15:04:35;19.20;97.20
46378;DHT22;32083;47.360;9.650;2022-10-26T15:07:22;19.20;97.10
46378;DHT22;32083;47.360;9.650;2022-10-26T15:09:52;19.10;97.60
46378;DHT22;32083;47.360;9.650;2022-10-26T15:12:37;19.10;97.10
46378;DHT22;32083;47.360;9.650;2022-10-26T15:17:53;19.00;97.20
46378;DHT22;32083;47.360;9.650;2022-10-26T15:20:22;19.10;98.20
46378;DHT22;32083;47.360;9.650;2022-10-26T15:23:00;19.00;98.30
46378;DHT22;32083;47.360;9.650;2022-10-26T15:25:32;18.90;99.40
46378;DHT22;32083;47.360;9.650;2022-10-26T15:31:02;18.80;98.80
46378;DHT22;32083;47.360;9.650;2022-10-26T15:33:29;18.80;98.30
46378;DHT22;32083;47.360;9.650;2022-10-26T15:36:41;18.80;98.90
46378;DHT22;32083;47.360;9.650;2022-10-26T15:39:00;18.70;98.60
46378;DHT22;32083;47.360;9.650;2022-10-26T15:41:29;18.70;98.70
46378;DHT22;32083;47.360;9.650;2022-10-26T15:43:57;18.60;99.30
46378;DHT22;32083;47.360;9.650;2022-10-26T15:46:31;18.50;99.70
46378;DHT22;32083;47.360;9.650;2022-10-26T15:49:07;18.40;99.90
46378;DHT22;32083;47.360;9.650;2022-10-26T15:51:39;18.30;99.90
46378;DHT22;32083;47.360;9.650;2022-10-26T15:54:05;18.20;99.90
46378;DHT22;32083;47.360;9.650;2022-10-26T15:56:31;18.10;99.90
46378;DHT22;32083;47.360;9.650;2022-10-26T15:58:57;18.00;99.90
46378;DHT22;32083;47.360;9.650;2022-10-26T16:01:28;18.00;99.90
46378;DHT22;32083;47.360;9.650;2022-10-26T16:03:55;17.90;99.90
46378;DHT22;32083;47.360;9.650;2022-10-26T16:06:27;17.80;99.90
46378;DHT22;32083;47.360;9.650;2022-10-26T16:08:56;17.70;99.90
46378;DHT22;32083;47.360;9.650;2022-10-26T16:11:23;17.70;99.90
46378;DHT22;32083;47.360;9.650;2022-10-26T16:13:49;17.60;99.90
46378;DHT22;32083;47.360;9.650;2022-10-26T16:16:16;17.50;99.90
46378;DHT22;32083;47.360;9.650;2022-10-26T16:18:43;17.50;99.90
46378;DHT22;32083;47.360;9.650;2022-10-26T16:21:14;17.40;99.90
46378;DHT22;32083;47.360;9.650;2022-10-26T16:23:41;17.30;99.90
46378;DHT22;32083;47.360;9.650;2022-10-26T16:26:07;17.20;99.90
46378;DHT22;32083;47.360;9.650;2022-10-26T16:28:35;17.20;99.90
46378;DHT22;32083;47.360;9.650;2022-10-26T16:31:03;17.10;99.90
46378;DHT22;32083;47.360;9.650;2022-10-26T16:33:29;17.10;99.90
46378;DHT22;32083;47.360;9.650;2022-10-26T16:35:56;17.00;99.90
46378;DHT22;32083;47.360;9.650;2022-10-26T16:38:24;16.90;99.90
46378;DHT22;32083;47.360;9.650;2022-10-26T16:41:01;16.90;99.90
46378;DHT22;32083;47.360;9.650;2022-10-26T16:43:30;16.80;99.90
46378;DHT22;32083;47.360;9.650;2022-10-26T16:45:57;16.70;99.90
46378;DHT22;32083;47.360;9.650;2022-10-26T16:48:23;16.70;99.90
46378;DHT22;32083;47.360;9.650;2022-10-26T16:50:49;16.70;99.90
46378;DHT22;32083;47.360;9.650;2022-10-26T16:53:15;16.70;99.90
46378;DHT22;32083;47.360;9.650;2022-10-26T16:55:41;16.60;99.90
46378;DHT22;32083;47.360;9.650;2022-10-26T16:58:08;16.60;99.90
46378;DHT22;32083;47.360;9.650;2022-10-26T17:00:36;16.40;99.90
46378;DHT22;32083;47.360;9.650;2022-10-26T17:03:02;16.40;99.90
46378;DHT22;32083;47.360;9.650;2022-10-26T17:05:29;16.30;99.90
46378;DHT22;32083;47.360;9.650;2022-10-26T17:07:55;16.30;99.90
46378;DHT22;32083;47.360;9.650;2022-10-26T17:10:21;16.20;99.90
46378;DHT22;32083;47.360;9.650;2022-10-26T17:12:47;16.10;99.90
46378;DHT22;32083;47.360;9.650;2022-10-26T17:15:13;16.10;99.90
46378;DHT22;32083;47.360;9.650;2022-10-26T17:17:39;16.00;99.90
46378;DHT22;32083;47.360;9.650;2022-10-26T17:20:06;16.00;99.90
46378;DHT22;32083;47.360;9.650;2022-10-26T17:22:32;15.90;99.90
46378;DHT22;32083;47.360;9.650;2022-10-26T17:24:58;15.80;99.90
46378;DHT22;32083;47.360;9.650;2022-10-26T17:27:24;15.70;99.90
46378;DHT22;32083;47.360;9.650;2022-10-26T17:29:51;15.70;99.90
46378;DHT22;32083;47.360;9.650;2022-10-26T17:32:17;15.70;99.90
46378;DHT22;32083;47.360;9.650;2022-10-26T17:34:43;15.60;99.90
46378;DHT22;32083;47.360;9.650;2022-10-26T17:37:09;15.60;99.90
46378;DHT22;32083;47.360;9.650;2022-10-26T17:39:35;15.60;99.90
46378;DHT22;32083;47.360;9.650;2022-10-26T17:42:01;15.50;99.90
46378;DHT22;32083;47.360;9.650;2022-10-26T17:44:27;15.50;99.90
46378;DHT22;32083;47.360;9.650;2022-10-26T17:46:53;15.40;99.90
46378;DHT22;32083;47.360;9.650;2022-10-26T17:49:19;15.40;99.90
46378;DHT22;32083;47.360;9.650;2022-10-26T17:51:45;15.30;99.90
46378;DHT22;32083;47.360;9.650;2022-10-26T17:54:11;15.30;99.90
46378;DHT22;32083;47.360;9.650;2022-10-26T17:56:37;15.20;99.90
46378;DHT22;32083;47.360;9.650;2022-10-26T17:59:07;15.20;99.90
46378;DHT22;32083;47.360;9.650;2022-10-26T18:01:33;15.20;99.90
46378;DHT22;32083;47.360;9.650;2022-10-26T18:03:59;15.10;99.90
46378;DHT22;32083;47.360;9.650;2022-10-26T18:06:26;15.00;99.90
46378;DHT22;32083;47.360;9.650;2022-10-26T18:08:54;14.90;99.90
46378;DHT22;32083;47.360;9.650;2022-10-26T18:11:22;14.90;99.90
46378;DHT22;32083;47.360;9.650;2022-10-26T18:13:48;14.90;99.90
46378;DHT22;32083;47.360;9.650;2022-10-26T18:16:16;14.90;99.90
46378;DHT22;32083;47.360;9.650;2022-10-26T18:18:46;14.80;99.90
46378;DHT22;32083;47.360;9.650;2022-10-26T18:21:17;14.80;99.90
46378;DHT22;32083;47.360;9.650;2022-10-26T18:23:43;14.80;99.90
46378;DHT22;32083;47.360;9.650;2022-10-26T18:26:13;14.70;99.90
46378;DHT22;32083;47.360;9.650;2022-10-26T18:28:40;14.60;99.90
46378;DHT22;32083;47.360;9.650;2022-10-26T18:31:09;14.50;99.90
46378;DHT22;32083;47.360;9.650;2022-10-26T18:33:35;14.50;99.90
46378;DHT22;32083;47.360;9.650;2022-10-26T18:36:09;14.50;99.90
46378;DHT22;32083;47.360;9.650;2022-10-26T18:38:36;14.50;99.90
46378;DHT22;32083;47.360;9.650;2022-10-26T18:41:03;14.50;99.90
46378;DHT22;32083;47.360;9.650;2022-10-26T18:43:29;14.40;99.90
46378;DHT22;32083;47.360;9.650;2022-10-26T18:46:10;14.40;99.90
46378;DHT22;32083;47.360;9.650;2022-10-26T18:48:36;14.40;99.90
46378;DHT22;32083;47.360;9.650;2022-10-26T18:51:04;14.30;99.90
46378;DHT22;32083;47.360;9.650;2022-10-26T18:53:32;14.30;99.90
46378;DHT22;32083;47.360;9.650;2022-10-26T18:56:03;14.30;99.90
46378;DHT22;32083;47.360;9.650;2022-10-26T18:58:31;14.20;99.90
46378;DHT22;32083;47.360;9.650;2022-10-26T19:03:43;14.20;99.90
46378;DHT22;32083;47.360;9.650;2022-10-26T19:06:21;14.10;99.90
46378;DHT22;32083;47.360;9.650;2022-10-26T19:08:47;14.10;99.90
46378;DHT22;32083;47.360;9.650;2022-10-26T19:11:15;14.10;99.90
46378;DHT22;32083;47.360;9.650;2022-10-26T19:13:41;14.10;99.90
46378;DHT22;32083;47.360;9.650;2022-10-26T19:16:13;14.10;99.90
46378;DHT22;32083;47.360;9.650;2022-10-26T19:18:39;14.00;99.90
46378;DHT22;32083;47.360;9.650;2022-10-26T19:21:08;14.00;99.90
46378;DHT22;32083;47.360;9.650;2022-10-26T19:23:42;14.00;99.90
46378;DHT22;32083;47.360;9.650;2022-10-26T19:26:10;14.00;99.90
46378;DHT22;32083;47.360;9.650;2022-10-26T19:28:37;14.00;99.90
46378;DHT22;32083;47.360;9.650;2022-10-26T19:31:04;14.00;99.90
46378;DHT22;32083;47.360;9.650;2022-10-26T19:33:31;13.90;99.90
46378;DHT22;32083;47.360;9.650;2022-10-26T19:36:00;13.90;99.90
46378;DHT22;32083;47.360;9.650;2022-10-26T19:38:30;13.90;99.90
46378;DHT22;32083;47.360;9.650;2022-10-26T19:40:59;13.90;99.90
46378;DHT22;32083;47.360;9.650;2022-10-26T19:43:26;13.90;99.90
46378;DHT22;32083;47.360;9.650;2022-10-26T19:45:55;13.90;99.90
46378;DHT22;32083;47.360;9.650;2022-10-26T19:48:21;13.90;99.90
46378;DHT22;32083;47.360;9.650;2022-10-26T19:50:48;13.80;99.90
46378;DHT22;32083;47.360;9.650;2022-10-26T19:53:17;13.80;99.90
46378;DHT22;32083;47.360;9.650;2022-10-26T19:55:43;13.80;99.90
46378;DHT22;32083;47.360;9.650;2022-10-26T19:58:10;13.70;99.90
46378;DHT22;32083;47.360;9.650;2022-10-26T20:00:37;13.70;99.90
46378;DHT22;32083;47.360;9.650;2022-10-26T20:03:03;13.60;99.90
46378;DHT22;32083;47.360;9.650;2022-10-26T20:05:29;13.50;99.90
46378;DHT22;32083;47.360;9.650;2022-10-26T20:07:55;13.50;99.90
46378;DHT22;32083;47.360;9.650;2022-10-26T20:10:22;13.50;99.90
46378;DHT22;32083;47.360;9.650;2022-10-26T20:12:48;13.50;99.90
46378;DHT22;32083;47.360;9.650;2022-10-26T20:15:14;13.50;99.90
46378;DHT22;32083;47.360;9.650;2022-10-26T20:17:40;13.50;99.90
46378;DHT22;32083;47.360;9.650;2022-10-26T20:20:07;13.50;99.90
46378;DHT22;32083;47.360;9.650;2022-10-26T20:22:33;13.40;99.90
46378;DHT22;32083;47.360;9.650;2022-10-26T20:24:59;13.40;99.90
46378;DHT22;32083;47.360;9.650;2022-10-26T20:27:25;13.40;99.90
46378;DHT22;32083;47.360;9.650;2022-10-26T20:29:51;13.40;99.90
46378;DHT22;32083;47.360;9.650;2022-10-26T20:32:17;13.30;99.90
46378;DHT22;32083;47.360;9.650;2022-10-26T20:34:43;13.30;99.90
46378;DHT22;32083;47.360;9.650;2022-10-26T20:37:10;13.20;99.90
46378;DHT22;32083;47.360;9.650;2022-10-26T20:39:38;13.20;99.90
46378;DHT22;32083;47.360;9.650;2022-10-26T20:42:04;13.20;99.90
46378;DHT22;32083;47.360;9.650;2022-10-26T20:44:34;13.10;99.90
46378;DHT22;32083;47.360;9.650;2022-10-26T20:47:03;13.10;99.90
46378;DHT22;32083;47.360;9.650;2022-10-26T20:49:30;13.10;99.90
46378;DHT22;32083;47.360;9.650;2022-10-26T20:52:04;13.10;99.90
46378;DHT22;32083;47.360;9.650;2022-10-26T20:54:44;12.90;99.90
46378;DHT22;32083;47.360;9.650;2022-10-26T20:57:15;12.90;99.90
46378;DHT22;32083;47.360;9.650;2022-10-26T20:59:51;12.90;99.90
46378;DHT22;32083;47.360;9.650;2022-10-26T21:02:19;12.80;99.90
46378;DHT22;32083;47.360;9.650;2022-10-26T21:04:46;12.90;99.90
46378;DHT22;32083;47.360;9.650;2022-10-26T21:07:12;12.90;99.90
46378;DHT22;32083;47.360;9.650;2022-10-26T21:09:38;12.80;99.90
46378;DHT22;32083;47.360;9.650;2022-10-26T21:12:04;12.80;99.90
46378;DHT22;32083;47.360;9.650;2022-10-26T21:14:30;12.70;99.90
46378;DHT22;32083;47.360;9.650;2022-10-26T21:17:01;12.70;99.90
46378;DHT22;32083;47.360;9.650;2022-10-26T21:19:27;12.70;99.90
46378;DHT22;32083;47.360;9.650;2022-10-26T21:21:53;12.70;99.90
46378;DHT22;32083;47.360;9.650;2022-10-26T21:24:19;12.60;99.90
46378;DHT22;32083;47.360;9.650;2022-10-26T21:26:45;12.60;99.90
46378;DHT22;32083;47.360;9.650;2022-10-26T21:29:10;12.60;99.90
46378;DHT22;32083;47.360;9.650;2022-10-26T21:31:37;12.50;99.90
46378;DHT22;32083;47.360;9.650;2022-10-26T21:34:03;12.50;99.90
46378;DHT22;32083;47.360;9.650;2022-10-26T21:36:29;12.40;99.90
46378;DHT22;32083;47.360;9.650;2022-10-26T21:38:55;12.40;99.90
46378;DHT22;32083;47.360;9.650;2022-10-26T21:41:21;12.40;99.90
46378;DHT22;32083;47.360;9.650;2022-10-26T21:43:49;12.30;99.90